sensor_id;sensor_type;location;lat;lon;timestamp;temperature;humidity
23271;DHT22;11804;51.118;17.058;2023-03-05T00:01:20;3.10;87.50
23271;DHT22;11804;51.118;17.058;2023-03-05T00:03:44;3.10;87.60
23271;DHT22;11804;51.118;17.058;2023-03-05T00:06:12;3.10;87.50
23271;DHT22;11804;51.118;17.058;2023-03-05T00:08:40;3.10;87.60
23271;DHT22;11804;51.118;17.058;2023-03-05T00:11:10;3.10;87.50
23271;DHT22;11804;51.118;17.058;2023-03-05T00:13:38;3.10;87.40
23271;DHT22;11804;51.118;17.058;2023-03-05T00:16:09;3.10;87.20
23271;DHT22;11804;51.118;17.058;2023-03-05T00:18:38;3.10;87.50
23271;DHT22;11804;51.118;17.058;2023-03-05T00:21:27;3.10;88.00
23271;DHT22;11804;51.118;17.058;2023-03-05T00:23:52;3.10;88.60
23271;DHT22;11804;51.118;17.058;2023-03-05T00:26:22;3.10;90.00
23271;DHT22;11804;51.118;17.058;2023-03-05T00:28:50;3.10;89.70
23271;DHT22;11804;51.118;17.058;2023-03-05T00:31:20;3.10;89.60
23271;DHT22;11804;51.118;17.058;2023-03-05T00:33:53;3.10;89.90
23271;DHT22;11804;51.118;17.058;2023-03-05T00:36:21;3.00;90.00
23271;DHT22;11804;51.118;17.058;2023-03-05T00:38:50;3.10;90.10
23271;DHT22;11804;51.118;17.058;2023-03-05T00:41:18;3.10;90.60
23271;DHT22;11804;51.118;17.058;2023-03-05T00:43:46;3.10;90.60
23271;DHT22;11804;51.118;17.058;2023-03-05T00:46:15;3.10;90.70
23271;DHT22;11804;51.118;17.058;2023-03-05T00:48:43;3.10;90.70
23271;DHT22;11804;51.118;17.058;2023-03-05T00:51:11;3.00;90.50
23271;DHT22;11804;51.118;17.058;2023-03-05T00:53:38;3.10;90.50
23271;DHT22;11804;51.118;17.058;2023-03-05T00:56:06;3.00;90.40
23271;DHT22;11804;51.118;17.058;2023-03-05T00:58:34;3.00;90.20
23271;DHT22;11804;51.118;17.058;2023-03-05T01:01:02;3.00;90.20
23271;DHT22;11804;51.118;17.058;2023-03-05T01:03:32;3.00;90.30
23271;DHT22;11804;51.118;17.058;2023-03-05T01:06:00;3.00;89.30
23271;DHT22;11804;51.118;17.058;2023-03-05T01:08:29;3.00;89.10
23271;DHT22;11804;51.118;17.058;2023-03-05T01:10:57;3.00;89.20
23271;DHT22;11804;51.118;17.058;2023-03-05T01:13:24;3.00;89.40
23271;DHT22;11804;51.118;17.058;2023-03-05T01:15:52;3.00;89.70
23271;DHT22;11804;51.118;17.058;2023-03-05T01:18:20;2.90;88.60
23271;DHT22;11804;51.118;17.058;2023-03-05T01:20:48;2.90;86.00
23271;DHT22;11804;51.118;17.058;2023-03-05T01:23:15;2.90;85.30
23271;DHT22;11804;51.118;17.058;2023-03-05T01:25:43;2.90;84.40
23271;DHT22;11804;51.118;17.058;2023-03-05T01:28:11;2.90;84.00
23271;DHT22;11804;51.118;17.058;2023-03-05T01:30:39;2.90;84.20
23271;DHT22;11804;51.118;17.058;2023-03-05T01:33:07;2.90;83.40
23271;DHT22;11804;51.118;17.058;2023-03-05T01:35:34;2.90;83.50
23271;DHT22;11804;51.118;17.058;2023-03-05T01:38:05;2.90;83.50
23271;DHT22;11804;51.118;17.058;2023-03-05T01:40:33;2.90;83.30
23271;DHT22;11804;51.118;17.058;2023-03-05T01:48:27;2.90;83.80
23271;DHT22;11804;51.118;17.058;2023-03-05T01:50:55;2.90;83.60
23271;DHT22;11804;51.118;17.058;2023-03-05T01:53:23;2.90;84.20
23271;DHT22;11804;51.118;17.058;2023-03-05T01:55:50;2.90;84.50
23271;DHT22;11804;51.118;17.058;2023-03-05T01:58:18;3.00;83.60
23271;DHT22;11804;51.118;17.058;2023-03-05T02:00:48;2.90;83.40
23271;DHT22;11804;51.118;17.058;2023-03-05T02:03:18;2.90;83.40
23271;DHT22;11804;51.118;17.058;2023-03-05T02:05:46;2.90;83.90
23271;DHT22;11804;51.118;17.058;2023-03-05T02:08:17;3.00;85.00
23271;DHT22;11804;51.118;17.058;2023-03-05T02:10:49;2.90;85.00
23271;DHT22;11804;51.118;17.058;2023-03-05T02:13:20;2.90;85.50
23271;DHT22;11804;51.118;17.058;2023-03-05T02:15:49;2.90;84.70
23271;DHT22;11804;51.118;17.058;2023-03-05T02:18:19;2.80;85.20
23271;DHT22;11804;51.118;17.058;2023-03-05T02:21:01;2.80;86.30
23271;DHT22;11804;51.118;17.058;2023-03-05T02:23:31;2.80;89.60
23271;DHT22;11804;51.118;17.058;2023-03-05T02:26:07;2.80;92.00
23271;DHT22;11804;51.118;17.058;2023-03-05T02:28:38;2.70;97.20
23271;DHT22;11804;51.118;17.058;2023-03-05T02:31:12;2.60;99.90
23271;DHT22;11804;51.118;17.058;2023-03-05T02:33:40;2.60;99.90
23271;DHT22;11804;51.118;17.058;2023-03-05T02:36:08;2.60;99.90
23271;DHT22;11804;51.118;17.058;2023-03-05T02:38:39;2.60;99.90
23271;DHT22;11804;51.118;17.058;2023-03-05T02:41:07;2.50;99.90
23271;DHT22;11804;51.118;17.058;2023-03-05T02:43:35;2.50;99.90
23271;DHT22;11804;51.118;17.058;2023-03-05T02:46:04;2.50;99.90
23271;DHT22;11804;51.118;17.058;2023-03-05T02:48:32;2.50;99.90
23271;DHT22;11804;51.118;17.058;2023-03-05T02:51:02;2.50;99.90
23271;DHT22;11804;51.118;17.058;2023-03-05T02:53:30;2.40;99.90
23271;DHT22;11804;51.118;17.058;2023-03-05T02:55:58;2.30;99.90
23271;DHT22;11804;51.118;17.058;2023-03-05T02:58:26;2.30;99.90
23271;DHT22;11804;51.118;17.058;2023-03-05T03:00:53;2.30;99.90
23271;DHT22;11804;51.118;17.058;2023-03-05T03:03:21;2.30;99.90
23271;DHT22;11804;51.118;17.058;2023-03-05T03:05:48;2.20;99.90
23271;DHT22;11804;51.118;17.058;2023-03-05T03:08:16;2.20;99.90
23271;DHT22;11804;51.118;17.058;2023-03-05T03:10:44;2.20;99.90
23271;DHT22;11804;51.118;17.058;2023-03-05T03:13:11;2.20;99.90
23271;DHT22;11804;51.118;17.058;2023-03-05T03:15:39;2.20;99.90
23271;DHT22;11804;51.118;17.058;2023-03-05T03:18:07;2.20;99.90
23271;DHT22;11804;51.118;17.058;2023-03-05T03:20:37;2.10;99.90
23271;DHT22;11804;51.118;17.058;2023-03-05T03:23:05;2.10;99.90
23271;DHT22;11804;51.118;17.058;2023-03-05T03:25:33;2.00;99.90
23271;DHT22;11804;51.118;17.058;2023-03-05T03:28:01;2.00;99.90
23271;DHT22;11804;51.118;17.058;2023-03-05T03:30:29;2.00;99.90
23271;DHT22;11804;51.118;17.058;2023-03-05T03:32:57;2.00;99.90
23271;DHT22;11804;51.118;17.058;2023-03-05T03:35:25;2.00;99.90
23271;DHT22;11804;51.118;17.058;2023-03-05T03:37:52;2.00;99.90
23271;DHT22;11804;51.118;17.058;2023-03-05T03:40:20;2.10;99.90
23271;DHT22;11804;51.118;17.058;2023-03-05T03:42:52;2.00;99.90
23271;DHT22;11804;51.118;17.058;2023-03-05T03:45:20;2.00;99.90
23271;DHT22;11804;51.118;17.058;2023-03-05T03:47:49;2.00;99.90
23271;DHT22;11804;51.118;17.058;2023-03-05T03:50:18;2.00;99.90
23271;DHT22;11804;51.118;17.058;2023-03-05T03:52:47;2.00;99.90
23271;DHT22;11804;51.118;17.058;2023-03-05T03:55:15;2.10;99.90
23271;DHT22;11804;51.118;17.058;2023-03-05T03:57:42;2.00;99.90
23271;DHT22;11804;51.118;17.058;2023-03-05T04:00:11;2.10;99.90
23271;DHT22;11804;51.118;17.058;2023-03-05T04:02:39;2.10;99.90
23271;DHT22;11804;51.118;17.058;2023-03-05T04:05:08;2.10;99.90
23271;DHT22;11804;51.118;17.058;2023-03-05T04:07:35;2.10;99.90
23271;DHT22;11804;51.118;17.058;2023-03-05T04:10:04;2.10;99.90
23271;DHT22;11804;51.118;17.058;2023-03-05T04:12:31;2.10;99.90
23271;DHT22;11804;51.118;17.058;2023-03-05T04:14:59;2.10;99.90
23271;DHT22;11804;51.118;17.058;2023-03-05T04:17:27;2.10;99.90
23271;DHT22;11804;51.118;17.058;2023-03-05T04:19:54;2.10;99.90
23271;DHT22;11804;51.118;17.058;2023-03-05T04:22:22;2.10;99.90
23271;DHT22;11804;51.118;17.058;2023-03-05T04:24:49;2.10;99.90
23271;DHT22;11804;51.118;17.058;2023-03-05T04:27:17;2.10;99.90
23271;DHT22;11804;51.118;17.058;2023-03-05T04:29:46;2.10;99.90
23271;DHT22;11804;51.118;17.058;2023-03-05T04:32:13;2.20;99.90
23271;DHT22;11804;51.118;17.058;2023-03-05T04:34:43;2.20;99.90
23271;DHT22;11804;51.118;17.058;2023-03-05T04:37:10;2.20;99.90
23271;DHT22;11804;51.118;17.058;2023-03-05T04:39:38;2.20;99.90
23271;DHT22;11804;51.118;17.058;2023-03-05T04:42:06;2.20;99.90
23271;DHT22;11804;51.118;17.058;2023-03-05T04:44:36;2.20;99.90
23271;DHT22;11804;51.118;17.058;2023-03-05T04:47:03;2.20;99.90
23271;DHT22;11804;51.118;17.058;2023-03-05T04:49:31;2.20;99.90
23271;DHT22;11804;51.118;17.058;2023-03-05T04:51:58;2.20;99.90
23271;DHT22;11804;51.118;17.058;2023-03-05T04:54:26;2.20;99.90
23271;DHT22;11804;51.118;17.058;2023-03-05T04:56:54;2.20;99.90
23271;DHT22;11804;51.118;17.058;2023-03-05T04:59:21;2.20;99.90
23271;DHT22;11804;51.118;17.058;2023-03-05T05:01:49;2.20;99.90
23271;DHT22;11804;51.118;17.058;2023-03-05T05:04:16;2.20;99.90
23271;DHT22;11804;51.118;17.058;2023-03-05T05:06:44;2.20;99.90
23271;DHT22;11804;51.118;17.058;2023-03-05T05:09:12;2.10;99.90
23271;DHT22;11804;51.118;17.058;2023-03-05T05:11:39;2.20;99.90
23271;DHT22;11804;51.118;17.058;2023-03-05T05:14:07;2.20;99.90
23271;DHT22;11804;51.118;17.058;2023-03-05T05:16:35;2.10;99.90
23271;DHT22;11804;51.118;17.058;2023-03-05T05:19:02;2.20;99.90
23271;DHT22;11804;51.118;17.058;2023-03-05T05:21:30;2.20;99.90
23271;DHT22;11804;51.118;17.058;2023-03-05T05:23:57;2.20;99.90
23271;DHT22;11804;51.118;17.058;2023-03-05T05:26:25;2.20;99.90
23271;DHT22;11804;51.118;17.058;2023-03-05T05:28:53;2.20;99.90
23271;DHT22;11804;51.118;17.058;2023-03-05T05:31:21;2.20;99.90
23271;DHT22;11804;51.118;17.058;2023-03-05T05:33:48;2.20;99.90
23271;DHT22;11804;51.118;17.058;2023-03-05T05:36:17;2.20;99.90
23271;DHT22;11804;51.118;17.058;2023-03-05T05:38:47;2.20;99.90
23271;DHT22;11804;51.118;17.058;2023-03-05T05:41:17;2.20;99.90
23271;DHT22;11804;51.118;17.058;2023-03-05T05:43:45;2.30;99.90
23271;DHT22;11804;51.118;17.058;2023-03-05T05:46:15;2.30;99.90
23271;DHT22;11804;51.118;17.058;2023-03-05T05:48:44;2.30;99.90
23271;DHT22;11804;51.118;17.058;2023-03-05T05:51:18;2.30;99.90
23271;DHT22;11804;51.118;17.058;2023-03-05T05:53:43;2.30;99.90
23271;DHT22;11804;51.118;17.058;2023-03-05T05:56:12;2.30;99.90
23271;DHT22;11804;51.118;17.058;2023-03-05T05:58:41;2.30;99.90
23271;DHT22;11804;51.118;17.058;2023-03-05T06:01:18;2.30;99.90
23271;DHT22;11804;51.118;17.058;2023-03-05T06:03:46;2.30;99.90
23271;DHT22;11804;51.118;17.058;2023-03-05T06:06:16;2.30;99.90
23271;DHT22;11804;51.118;17.058;2023-03-05T06:08:45;2.30;99.90
23271;DHT22;11804;51.118;17.058;2023-03-05T06:11:13;2.30;99.90
23271;DHT22;11804;51.118;17.058;2023-03-05T06:13:41;2.30;99.90
23271;DHT22;11804;51.118;17.058;2023-03-05T06:16:11;2.20;99.90
23271;DHT22;11804;51.118;17.058;2023-03-05T06:18:40;2.20;99.90
23271;DHT22;11804;51.118;17.058;2023-03-05T06:21:13;2.20;99.90
23271;DHT22;11804;51.118;17.058;2023-03-05T06:23:41;2.20;99.90
23271;DHT22;11804;51.118;17.058;2023-03-05T06:26:11;2.10;99.90
23271;DHT22;11804;51.118;17.058;2023-03-05T06:28:39;2.10;99.90
23271;DHT22;11804;51.118;17.058;2023-03-05T06:31:11;2.10;99.90
23271;DHT22;11804;51.118;17.058;2023-03-05T06:33:40;2.00;99.90
23271;DHT22;11804;51.118;17.058;2023-03-05T06:36:11;2.00;99.90
23271;DHT22;11804;51.118;17.058;2023-03-05T06:38:39;2.00;99.90
23271;DHT22;11804;51.118;17.058;2023-03-05T06:41:09;2.00;99.90
23271;DHT22;11804;51.118;17.058;2023-03-05T06:43:39;1.90;99.90
23271;DHT22;11804;51.118;17.058;2023-03-05T06:46:16;1.90;99.90
23271;DHT22;11804;51.118;17.058;2023-03-05T06:48:45;1.90;99.90
23271;DHT22;11804;51.118;17.058;2023-03-05T06:51:15;1.90;99.90
23271;DHT22;11804;51.118;17.058;2023-03-05T06:53:44;1.80;99.90
23271;DHT22;11804;51.118;17.058;2023-03-05T06:56:12;1.80;99.90
23271;DHT22;11804;51.118;17.058;2023-03-05T06:58:43;1.90;99.90
23271;DHT22;11804;51.118;17.058;2023-03-05T07:01:12;1.90;99.90
23271;DHT22;11804;51.118;17.058;2023-03-05T07:03:41;2.00;99.90
23271;DHT22;11804;51.118;17.058;2023-03-05T07:06:12;2.00;99.90
23271;DHT22;11804;51.118;17.058;2023-03-05T07:08:39;2.10;99.90
23271;DHT22;11804;51.118;17.058;2023-03-05T07:11:12;2.10;99.90
23271;DHT22;11804;51.118;17.058;2023-03-05T07:13:41;2.20;99.90
23271;DHT22;11804;51.118;17.058;2023-03-05T07:16:12;2.20;99.90
23271;DHT22;11804;51.118;17.058;2023-03-05T07:18:39;2.20;99.90
23271;DHT22;11804;51.118;17.058;2023-03-05T07:21:08;2.20;99.90
23271;DHT22;11804;51.118;17.058;2023-03-05T07:23:36;2.20;99.90
23271;DHT22;11804;51.118;17.058;2023-03-05T07:26:05;2.40;99.90
23271;DHT22;11804;51.118;17.058;2023-03-05T07:28:33;2.40;99.90
23271;DHT22;11804;51.118;17.058;2023-03-05T07:31:10;2.50;99.90
23271;DHT22;11804;51.118;17.058;2023-03-05T07:33:33;2.50;99.90
23271;DHT22;11804;51.118;17.058;2023-03-05T07:36:06;2.50;99.90
23271;DHT22;11804;51.118;17.058;2023-03-05T07:38:33;2.50;99.90
23271;DHT22;11804;51.118;17.058;2023-03-05T07:41:10;2.50;99.90
23271;DHT22;11804;51.118;17.058;2023-03-05T07:43:38;2.60;99.90
23271;DHT22;11804;51.118;17.058;2023-03-05T07:46:08;2.70;99.90
23271;DHT22;11804;51.118;17.058;2023-03-05T07:48:37;2.70;99.90
23271;DHT22;11804;51.118;17.058;2023-03-05T07:51:10;2.70;99.90
23271;DHT22;11804;51.118;17.058;2023-03-05T07:53:41;2.90;99.90
23271;DHT22;11804;51.118;17.058;2023-03-05T07:56:09;2.90;99.90
23271;DHT22;11804;51.118;17.058;2023-03-05T07:58:37;3.00;99.90
23271;DHT22;11804;51.118;17.058;2023-03-05T08:01:10;3.00;99.90
23271;DHT22;11804;51.118;17.058;2023-03-05T08:03:41;3.00;99.90
23271;DHT22;11804;51.118;17.058;2023-03-05T08:06:10;3.10;99.90
23271;DHT22;11804;51.118;17.058;2023-03-05T08:08:38;3.00;99.90
23271;DHT22;11804;51.118;17.058;2023-03-05T08:11:08;3.10;99.90
23271;DHT22;11804;51.118;17.058;2023-03-05T08:13:36;3.00;99.90
23271;DHT22;11804;51.118;17.058;2023-03-05T08:16:06;3.10;99.90
23271;DHT22;11804;51.118;17.058;2023-03-05T08:18:34;3.10;99.90
23271;DHT22;11804;51.118;17.058;2023-03-05T08:21:03;2.90;99.90
23271;DHT22;11804;51.118;17.058;2023-03-05T08:23:30;2.60;99.90
23271;DHT22;11804;51.118;17.058;2023-03-05T08:26:00;2.50;99.90
23271;DHT22;11804;51.118;17.058;2023-03-05T08:28:27;2.40;99.90
23271;DHT22;11804;51.118;17.058;2023-03-05T08:30:55;2.20;99.90
23271;DHT22;11804;51.118;17.058;2023-03-05T08:33:22;2.20;99.90
23271;DHT22;11804;51.118;17.058;2023-03-05T08:35:50;2.40;99.90
23271;DHT22;11804;51.118;17.058;2023-03-05T08:38:18;2.50;99.90
23271;DHT22;11804;51.118;17.058;2023-03-05T08:40:45;2.70;99.90
23271;DHT22;11804;51.118;17.058;2023-03-05T08:43:15;2.60;99.90
23271;DHT22;11804;51.118;17.058;2023-03-05T08:45:43;2.50;99.90
23271;DHT22;11804;51.118;17.058;2023-03-05T08:48:13;2.60;99.90
23271;DHT22;11804;51.118;17.058;2023-03-05T08:50:40;2.70;99.90
23271;DHT22;11804;51.118;17.058;2023-03-05T08:53:08;2.80;99.90
23271;DHT22;11804;51.118;17.058;2023-03-05T08:55:36;2.80;99.90
23271;DHT22;11804;51.118;17.058;2023-03-05T08:58:05;2.80;99.90
23271;DHT22;11804;51.118;17.058;2023-03-05T09:00:33;2.80;99.90
23271;DHT22;11804;51.118;17.058;2023-03-05T09:03:01;2.80;99.90
23271;DHT22;11804;51.118;17.058;2023-03-05T09:05:28;2.90;99.90
23271;DHT22;11804;51.118;17.058;2023-03-05T09:07:58;2.90;99.90
23271;DHT22;11804;51.118;17.058;2023-03-05T09:10:25;2.90;99.90
23271;DHT22;11804;51.118;17.058;2023-03-05T09:12:54;2.90;99.90
23271;DHT22;11804;51.118;17.058;2023-03-05T09:15:22;2.90;99.90
23271;DHT22;11804;51.118;17.058;2023-03-05T09:17:50;2.90;99.90
23271;DHT22;11804;51.118;17.058;2023-03-05T09:20:18;2.80;99.90
23271;DHT22;11804;51.118;17.058;2023-03-05T09:22:45;2.90;99.90
23271;DHT22;11804;51.118;17.058;2023-03-05T09:25:13;2.80;99.90
23271;DHT22;11804;51.118;17.058;2023-03-05T09:27:41;2.80;99.90
23271;DHT22;11804;51.118;17.058;2023-03-05T09:30:11;2.70;99.90
23271;DHT22;11804;51.118;17.058;2023-03-05T09:32:41;2.60;99.90
23271;DHT22;11804;51.118;17.058;2023-03-05T09:35:10;2.50;99.90
23271;DHT22;11804;51.118;17.058;2023-03-05T09:37:38;2.60;99.90
23271;DHT22;11804;51.118;17.058;2023-03-05T09:40:06;2.70;99.90
23271;DHT22;11804;51.118;17.058;2023-03-05T09:42:44;2.80;99.90
23271;DHT22;11804;51.118;17.058;2023-03-05T09:45:25;2.90;99.90
23271;DHT22;11804;51.118;17.058;2023-03-05T09:48:05;3.00;99.90
23271;DHT22;11804;51.118;17.058;2023-03-05T09:53:45;3.00;99.90
23271;DHT22;11804;51.118;17.058;2023-03-05T09:56:15;3.10;99.90
23271;DHT22;11804;51.118;17.058;2023-03-05T09:58:51;3.10;99.90
23271;DHT22;11804;51.118;17.058;2023-03-05T10:01:29;3.30;99.90
23271;DHT22;11804;51.118;17.058;2023-03-05T10:04:00;3.30;99.90
23271;DHT22;11804;51.118;17.058;2023-03-05T10:06:35;3.40;99.90
23271;DHT22;11804;51.118;17.058;2023-03-05T10:11:52;3.70;99.90
23271;DHT22;11804;51.118;17.058;2023-03-05T10:25:25;4.30;99.90
23271;DHT22;11804;51.118;17.058;2023-03-05T10:28:20;4.40;99.90
23271;DHT22;11804;51.118;17.058;2023-03-05T10:33:07;4.80;98.30
23271;DHT22;11804;51.118;17.058;2023-03-05T10:35:46;5.30;97.20
23271;DHT22;11804;51.118;17.058;2023-03-05T10:40:50;5.60;91.40
23271;DHT22;11804;51.118;17.058;2023-03-05T10:43:37;5.40;91.10
23271;DHT22;11804;51.118;17.058;2023-03-05T10:46:04;5.20;92.90
23271;DHT22;11804;51.118;17.058;2023-03-05T10:48:40;5.00;93.30
23271;DHT22;11804;51.118;17.058;2023-03-05T10:56:23;4.20;94.80
23271;DHT22;11804;51.118;17.058;2023-03-05T10:58:51;4.10;95.70
23271;DHT22;11804;51.118;17.058;2023-03-05T11:01:22;4.00;95.40
23271;DHT22;11804;51.118;17.058;2023-03-05T11:03:56;4.00;95.90
23271;DHT22;11804;51.118;17.058;2023-03-05T11:06:43;3.90;96.40
23271;DHT22;11804;51.118;17.058;2023-03-05T11:09:18;3.80;97.60
23271;DHT22;11804;51.118;17.058;2023-03-05T11:14:32;3.80;99.90
23271;DHT22;11804;51.118;17.058;2023-03-05T11:17:07;3.60;99.90
23271;DHT22;11804;51.118;17.058;2023-03-05T11:19:32;3.50;99.90
23271;DHT22;11804;51.118;17.058;2023-03-05T11:22:14;3.50;99.90
23271;DHT22;11804;51.118;17.058;2023-03-05T11:24:40;3.60;99.90
23271;DHT22;11804;51.118;17.058;2023-03-05T11:27:23;3.50;99.90
23271;DHT22;11804;51.118;17.058;2023-03-05T11:29:51;3.50;99.90
23271;DHT22;11804;51.118;17.058;2023-03-05T11:32:24;3.60;99.90
23271;DHT22;11804;51.118;17.058;2023-03-05T11:34:53;3.60;99.90
23271;DHT22;11804;51.118;17.058;2023-03-05T11:37:26;3.60;99.90
23271;DHT22;11804;51.118;17.058;2023-03-05T11:40:32;3.80;99.90
23271;DHT22;11804;51.118;17.058;2023-03-05T11:42:33;3.90;99.90
23271;DHT22;11804;51.118;17.058;2023-03-05T11:45:02;4.20;99.90
23271;DHT22;11804;51.118;17.058;2023-03-05T11:47:41;4.40;99.90
23271;DHT22;11804;51.118;17.058;2023-03-05T11:50:19;4.50;99.90
23271;DHT22;11804;51.118;17.058;2023-03-05T11:52:50;4.40;99.90
23271;DHT22;11804;51.118;17.058;2023-03-05T12:01:00;4.80;99.90
23271;DHT22;11804;51.118;17.058;2023-03-05T12:03:34;4.80;99.90
23271;DHT22;11804;51.118;17.058;2023-03-05T12:08:41;4.80;99.90
23271;DHT22;11804;51.118;17.058;2023-03-05T12:11:18;4.70;99.20
23271;DHT22;11804;51.118;17.058;2023-03-05T12:13:47;4.30;99.50
23271;DHT22;11804;51.118;17.058;2023-03-05T12:16:23;4.20;99.90
23271;DHT22;11804;51.118;17.058;2023-03-05T12:21:40;4.20;99.90
23271;DHT22;11804;51.118;17.058;2023-03-05T12:27:06;4.70;99.90
23271;DHT22;11804;51.118;17.058;2023-03-05T12:29:51;4.70;99.90
23271;DHT22;11804;51.118;17.058;2023-03-05T12:35:04;4.70;99.90
23271;DHT22;11804;51.118;17.058;2023-03-05T12:40:25;4.80;99.90
23271;DHT22;11804;51.118;17.058;2023-03-05T12:42:55;4.60;99.90
23271;DHT22;11804;51.118;17.058;2023-03-05T12:45:38;4.60;99.90
23271;DHT22;11804;51.118;17.058;2023-03-05T12:53:13;4.20;99.90
23271;DHT22;11804;51.118;17.058;2023-03-05T12:58:43;4.00;99.90
23271;DHT22;11804;51.118;17.058;2023-03-05T13:01:31;4.00;99.90
23271;DHT22;11804;51.118;17.058;2023-03-05T13:04:05;3.90;99.90
23271;DHT22;11804;51.118;17.058;2023-03-05T13:06:37;3.70;99.90
23271;DHT22;11804;51.118;17.058;2023-03-05T13:09:22;3.30;99.90
23271;DHT22;11804;51.118;17.058;2023-03-05T13:11:47;3.10;99.90
23271;DHT22;11804;51.118;17.058;2023-03-05T13:14:27;2.90;99.90
23271;DHT22;11804;51.118;17.058;2023-03-05T13:16:51;2.90;99.90
23271;DHT22;11804;51.118;17.058;2023-03-05T13:19:19;2.80;99.90
23271;DHT22;11804;51.118;17.058;2023-03-05T13:22:01;2.80;99.90
23271;DHT22;11804;51.118;17.058;2023-03-05T13:24:29;2.80;99.90
23271;DHT22;11804;51.118;17.058;2023-03-05T13:26:57;2.70;99.90
23271;DHT22;11804;51.118;17.058;2023-03-05T13:29:26;2.70;99.90
23271;DHT22;11804;51.118;17.058;2023-03-05T13:32:00;2.70;99.90
23271;DHT22;11804;51.118;17.058;2023-03-05T13:34:34;2.70;99.90
23271;DHT22;11804;51.118;17.058;2023-03-05T13:37:17;2.60;99.90
23271;DHT22;11804;51.118;17.058;2023-03-05T13:42:32;2.80;99.90
23271;DHT22;11804;51.118;17.058;2023-03-05T13:45:19;2.80;99.90
23271;DHT22;11804;51.118;17.058;2023-03-05T13:47:34;2.80;99.90
23271;DHT22;11804;51.118;17.058;2023-03-05T13:50:05;2.80;99.90
23271;DHT22;11804;51.118;17.058;2023-03-05T13:52:35;2.80;99.90
23271;DHT22;11804;51.118;17.058;2023-03-05T13:55:11;2.80;99.90
23271;DHT22;11804;51.118;17.058;2023-03-05T13:57:48;2.70;99.90
23271;DHT22;11804;51.118;17.058;2023-03-05T14:00:36;2.70;99.90
23271;DHT22;11804;51.118;17.058;2023-03-05T14:03:10;2.70;99.90
23271;DHT22;11804;51.118;17.058;2023-03-05T14:05:42;2.80;99.90
23271;DHT22;11804;51.118;17.058;2023-03-05T14:08:21;2.80;99.90
23271;DHT22;11804;51.118;17.058;2023-03-05T14:10:48;2.90;99.90
23271;DHT22;11804;51.118;17.058;2023-03-05T14:13:21;3.00;99.90
23271;DHT22;11804;51.118;17.058;2023-03-05T14:16:09;3.00;99.90
23271;DHT22;11804;51.118;17.058;2023-03-05T14:18:32;3.10;99.90
23271;DHT22;11804;51.118;17.058;2023-03-05T14:21:09;3.30;99.90
23271;DHT22;11804;51.118;17.058;2023-03-05T14:23:48;3.50;99.90
23271;DHT22;11804;51.118;17.058;2023-03-05T14:26:31;3.70;99.90
23271;DHT22;11804;51.118;17.058;2023-03-05T14:29:03;4.00;99.90
23271;DHT22;11804;51.118;17.058;2023-03-05T14:31:44;3.90;99.90
23271;DHT22;11804;51.118;17.058;2023-03-05T14:34:05;3.90;99.90
23271;DHT22;11804;51.118;17.058;2023-03-05T14:36:33;3.90;99.90
23271;DHT22;11804;51.118;17.058;2023-03-05T14:39:02;3.90;99.90
23271;DHT22;11804;51.118;17.058;2023-03-05T14:41:40;3.70;99.90
23271;DHT22;11804;51.118;17.058;2023-03-05T14:44:12;3.70;99.90
23271;DHT22;11804;51.118;17.058;2023-03-05T14:46:48;3.70;99.90
23271;DHT22;11804;51.118;17.058;2023-03-05T14:49:16;3.60;99.90
23271;DHT22;11804;51.118;17.058;2023-03-05T14:51:45;3.70;99.90
23271;DHT22;11804;51.118;17.058;2023-03-05T14:54:22;3.60;99.90
23271;DHT22;11804;51.118;17.058;2023-03-05T14:56:50;3.60;99.90
23271;DHT22;11804;51.118;17.058;2023-03-05T14:59:18;3.50;99.90
23271;DHT22;11804;51.118;17.058;2023-03-05T15:01:48;3.50;99.90
23271;DHT22;11804;51.118;17.058;2023-03-05T15:04:16;3.50;99.90
23271;DHT22;11804;51.118;17.058;2023-03-05T15:06:46;3.50;99.90
23271;DHT22;11804;51.118;17.058;2023-03-05T15:09:17;3.50;99.90
23271;DHT22;11804;51.118;17.058;2023-03-05T15:11:49;3.50;99.90
23271;DHT22;11804;51.118;17.058;2023-03-05T15:14:17;3.60;99.90
23271;DHT22;11804;51.118;17.058;2023-03-05T15:16:45;3.50;99.90
23271;DHT22;11804;51.118;17.058;2023-03-05T15:19:14;3.50;99.90
23271;DHT22;11804;51.118;17.058;2023-03-05T15:21:42;3.50;99.90
23271;DHT22;11804;51.118;17.058;2023-03-05T15:24:10;3.50;99.90
23271;DHT22;11804;51.118;17.058;2023-03-05T15:26:39;3.40;99.90
23271;DHT22;11804;51.118;17.058;2023-03-05T15:29:07;3.30;99.90
23271;DHT22;11804;51.118;17.058;2023-03-05T15:31:35;3.20;99.90
23271;DHT22;11804;51.118;17.058;2023-03-05T15:34:05;3.20;99.90
23271;DHT22;11804;51.118;17.058;2023-03-05T15:36:32;3.10;99.90
23271;DHT22;11804;51.118;17.058;2023-03-05T15:39:00;3.10;99.90
23271;DHT22;11804;51.118;17.058;2023-03-05T15:41:28;3.10;99.90
23271;DHT22;11804;51.118;17.058;2023-03-05T15:43:56;3.10;99.90
23271;DHT22;11804;51.118;17.058;2023-03-05T15:46:23;3.00;99.90
23271;DHT22;11804;51.118;17.058;2023-03-05T15:48:51;2.90;99.90
23271;DHT22;11804;51.118;17.058;2023-03-05T15:51:18;2.90;99.90
23271;DHT22;11804;51.118;17.058;2023-03-05T15:53:47;2.80;99.90
23271;DHT22;11804;51.118;17.058;2023-03-05T15:56:16;2.80;99.90
23271;DHT22;11804;51.118;17.058;2023-03-05T15:58:44;2.70;99.90
23271;DHT22;11804;51.118;17.058;2023-03-05T16:01:12;2.70;99.90
23271;DHT22;11804;51.118;17.058;2023-03-05T16:03:41;2.70;99.90
23271;DHT22;11804;51.118;17.058;2023-03-05T16:06:09;2.70;99.90
23271;DHT22;11804;51.118;17.058;2023-03-05T16:08:41;2.70;99.90
23271;DHT22;11804;51.118;17.058;2023-03-05T16:11:10;2.70;99.90
23271;DHT22;11804;51.118;17.058;2023-03-05T16:13:39;2.70;99.90
23271;DHT22;11804;51.118;17.058;2023-03-05T16:16:08;2.70;99.90
23271;DHT22;11804;51.118;17.058;2023-03-05T16:18:38;2.70;99.90
23271;DHT22;11804;51.118;17.058;2023-03-05T16:21:10;2.70;99.90
23271;DHT22;11804;51.118;17.058;2023-03-05T16:23:40;2.70;99.90
23271;DHT22;11804;51.118;17.058;2023-03-05T16:26:09;2.60;99.90
23271;DHT22;11804;51.118;17.058;2023-03-05T16:28:37;2.70;99.90
23271;DHT22;11804;51.118;17.058;2023-03-05T16:31:05;2.60;99.90
23271;DHT22;11804;51.118;17.058;2023-03-05T16:33:33;2.60;99.90
23271;DHT22;11804;51.118;17.058;2023-03-05T16:36:16;2.60;99.90
23271;DHT22;11804;51.118;17.058;2023-03-05T16:38:40;2.60;99.90
23271;DHT22;11804;51.118;17.058;2023-03-05T16:41:08;2.60;99.90
23271;DHT22;11804;51.118;17.058;2023-03-05T16:43:36;2.50;99.90
23271;DHT22;11804;51.118;17.058;2023-03-05T16:46:03;2.50;99.90
23271;DHT22;11804;51.118;17.058;2023-03-05T16:48:31;2.50;99.90
23271;DHT22;11804;51.118;17.058;2023-03-05T16:50:59;2.50;99.90
23271;DHT22;11804;51.118;17.058;2023-03-05T16:53:27;2.50;99.90